sensor_id;sensor_type;location;lat;lon;timestamp;P1;durP1;ratioP1;P2;durP2;ratioP2
24739;SDS011;45234;48.148;17.128;2022-07-18T00:02:26;3.35;;;1.48;;
24739;SDS011;45234;48.148;17.128;2022-07-18T00:04:53;3.25;;;1.60;;
24739;SDS011;45234;48.148;17.128;2022-07-18T00:07:20;3.17;;;1.38;;
24739;SDS011;45234;48.148;17.128;2022-07-18T00:09:47;3.17;;;1.75;;
24739;SDS011;45234;48.148;17.128;2022-07-18T00:12:14;5.63;;;1.77;;
24739;SDS011;45234;48.148;17.128;2022-07-18T00:14:42;6.93;;;1.42;;
24739;SDS011;45234;48.148;17.128;2022-07-18T00:17:09;2.38;;;1.48;;
24739;SDS011;45234;48.148;17.128;2022-07-18T00:19:36;4.40;;;1.60;;
24739;SDS011;45234;48.148;17.128;2022-07-18T00:22:04;3.00;;;1.48;;
24739;SDS011;45234;48.148;17.128;2022-07-18T00:24:32;2.47;;;1.17;;
24739;SDS011;45234;48.148;17.128;2022-07-18T00:27:00;3.50;;;1.38;;
24739;SDS011;45234;48.148;17.128;2022-07-18T00:29:28;3.40;;;1.80;;
24739;SDS011;45234;48.148;17.128;2022-07-18T00:31:55;7.53;;;2.17;;
24739;SDS011;45234;48.148;17.128;2022-07-18T00:34:22;2.55;;;1.50;;
24739;SDS011;45234;48.148;17.128;2022-07-18T00:36:49;2.80;;;1.70;;
24739;SDS011;45234;48.148;17.128;2022-07-18T00:39:16;4.63;;;1.80;;
24739;SDS011;45234;48.148;17.128;2022-07-18T00:41:47;4.03;;;1.52;;
24739;SDS011;45234;48.148;17.128;2022-07-18T00:44:19;3.38;;;1.80;;
24739;SDS011;45234;48.148;17.128;2022-07-18T00:46:54;2.80;;;1.58;;
24739;SDS011;45234;48.148;17.128;2022-07-18T00:49:23;2.13;;;1.20;;
24739;SDS011;45234;48.148;17.128;2022-07-18T00:51:51;3.88;;;1.38;;
24739;SDS011;45234;48.148;17.128;2022-07-18T00:54:18;5.00;;;1.02;;
24739;SDS011;45234;48.148;17.128;2022-07-18T00:56:46;3.03;;;1.40;;
24739;SDS011;45234;48.148;17.128;2022-07-18T00:59:15;4.05;;;1.60;;
24739;SDS011;45234;48.148;17.128;2022-07-18T01:01:43;4.05;;;1.50;;
24739;SDS011;45234;48.148;17.128;2022-07-18T01:04:18;2.97;;;1.23;;
24739;SDS011;45234;48.148;17.128;2022-07-18T01:06:47;3.47;;;1.30;;
24739;SDS011;45234;48.148;17.128;2022-07-18T01:09:16;3.38;;;1.30;;
24739;SDS011;45234;48.148;17.128;2022-07-18T01:11:44;2.00;;;1.27;;
24739;SDS011;45234;48.148;17.128;2022-07-18T01:14:13;2.95;;;1.52;;
24739;SDS011;45234;48.148;17.128;2022-07-18T01:16:41;3.55;;;1.40;;
24739;SDS011;45234;48.148;17.128;2022-07-18T01:19:08;3.92;;;1.20;;
24739;SDS011;45234;48.148;17.128;2022-07-18T01:21:37;5.97;;;1.15;;
24739;SDS011;45234;48.148;17.128;2022-07-18T01:24:05;3.72;;;1.20;;
24739;SDS011;45234;48.148;17.128;2022-07-18T01:26:32;2.13;;;1.38;;
24739;SDS011;45234;48.148;17.128;2022-07-18T01:29:02;3.80;;;1.45;;
24739;SDS011;45234;48.148;17.128;2022-07-18T01:31:29;1.45;;;1.02;;
24739;SDS011;45234;48.148;17.128;2022-07-18T01:34:00;5.18;;;1.17;;
24739;SDS011;45234;48.148;17.128;2022-07-18T01:36:27;2.63;;;1.50;;
24739;SDS011;45234;48.148;17.128;2022-07-18T01:38:55;2.25;;;1.25;;
24739;SDS011;45234;48.148;17.128;2022-07-18T01:41:22;3.97;;;1.45;;
24739;SDS011;45234;48.148;17.128;2022-07-18T01:43:49;3.30;;;1.38;;
24739;SDS011;45234;48.148;17.128;2022-07-18T01:46:16;3.30;;;1.50;;
24739;SDS011;45234;48.148;17.128;2022-07-18T01:48:43;2.88;;;1.50;;
24739;SDS011;45234;48.148;17.128;2022-07-18T01:51:10;3.60;;;1.25;;
24739;SDS011;45234;48.148;17.128;2022-07-18T01:53:38;3.53;;;1.60;;
24739;SDS011;45234;48.148;17.128;2022-07-18T01:56:06;3.53;;;1.50;;
24739;SDS011;45234;48.148;17.128;2022-07-18T01:58:34;5.25;;;1.27;;
24739;SDS011;45234;48.148;17.128;2022-07-18T02:01:01;3.40;;;1.25;;
24739;SDS011;45234;48.148;17.128;2022-07-18T02:03:28;7.93;;;1.50;;
24739;SDS011;45234;48.148;17.128;2022-07-18T02:05:56;2.67;;;1.00;;
24739;SDS011;45234;48.148;17.128;2022-07-18T02:08:23;3.92;;;1.48;;
24739;SDS011;45234;48.148;17.128;2022-07-18T02:10:51;2.40;;;1.40;;
24739;SDS011;45234;48.148;17.128;2022-07-18T02:13:18;3.47;;;1.33;;
24739;SDS011;45234;48.148;17.128;2022-07-18T02:15:46;5.70;;;1.52;;
24739;SDS011;45234;48.148;17.128;2022-07-18T02:18:14;6.57;;;1.77;;
24739;SDS011;45234;48.148;17.128;2022-07-18T02:20:41;2.47;;;1.52;;
24739;SDS011;45234;48.148;17.128;2022-07-18T02:23:08;4.50;;;1.38;;
24739;SDS011;45234;48.148;17.128;2022-07-18T02:25:35;4.57;;;1.17;;
24739;SDS011;45234;48.148;17.128;2022-07-18T02:28:03;5.43;;;1.83;;
24739;SDS011;45234;48.148;17.128;2022-07-18T02:30:30;3.45;;;1.70;;
24739;SDS011;45234;48.148;17.128;2022-07-18T02:32:57;3.90;;;1.80;;
24739;SDS011;45234;48.148;17.128;2022-07-18T02:35:25;4.40;;;2.03;;
24739;SDS011;45234;48.148;17.128;2022-07-18T02:37:52;4.97;;;1.95;;
24739;SDS011;45234;48.148;17.128;2022-07-18T02:40:19;3.28;;;1.67;;
24739;SDS011;45234;48.148;17.128;2022-07-18T02:42:46;3.80;;;2.25;;
24739;SDS011;45234;48.148;17.128;2022-07-18T02:45:14;5.35;;;2.15;;
24739;SDS011;45234;48.148;17.128;2022-07-18T02:47:41;4.30;;;2.50;;
24739;SDS011;45234;48.148;17.128;2022-07-18T02:50:09;4.75;;;2.45;;
24739;SDS011;45234;48.148;17.128;2022-07-18T02:52:36;7.50;;;2.30;;
24739;SDS011;45234;48.148;17.128;2022-07-18T02:55:05;6.15;;;2.85;;
24739;SDS011;45234;48.148;17.128;2022-07-18T02:57:33;3.45;;;2.20;;
24739;SDS011;45234;48.148;17.128;2022-07-18T03:00:00;5.22;;;2.40;;
24739;SDS011;45234;48.148;17.128;2022-07-18T03:02:29;4.10;;;2.67;;
24739;SDS011;45234;48.148;17.128;2022-07-18T03:04:57;10.95;;;2.78;;
24739;SDS011;45234;48.148;17.128;2022-07-18T03:07:24;5.05;;;2.42;;
24739;SDS011;45234;48.148;17.128;2022-07-18T03:09:50;9.30;;;2.30;;
24739;SDS011;45234;48.148;17.128;2022-07-18T03:12:18;4.47;;;2.60;;
24739;SDS011;45234;48.148;17.128;2022-07-18T03:14:45;6.13;;;2.90;;
24739;SDS011;45234;48.148;17.128;2022-07-18T03:17:12;4.35;;;2.30;;
24739;SDS011;45234;48.148;17.128;2022-07-18T03:19:39;3.70;;;2.85;;
24739;SDS011;45234;48.148;17.128;2022-07-18T03:22:06;8.02;;;3.38;;
24739;SDS011;45234;48.148;17.128;2022-07-18T03:24:33;5.55;;;3.22;;
24739;SDS011;45234;48.148;17.128;2022-07-18T03:27:01;7.95;;;3.42;;
24739;SDS011;45234;48.148;17.128;2022-07-18T03:29:28;5.90;;;3.22;;
24739;SDS011;45234;48.148;17.128;2022-07-18T03:31:55;6.63;;;3.10;;
24739;SDS011;45234;48.148;17.128;2022-07-18T03:34:22;6.10;;;3.15;;
24739;SDS011;45234;48.148;17.128;2022-07-18T03:36:49;6.80;;;3.53;;
24739;SDS011;45234;48.148;17.128;2022-07-18T03:39:16;5.63;;;4.22;;
24739;SDS011;45234;48.148;17.128;2022-07-18T03:41:44;6.30;;;3.50;;
24739;SDS011;45234;48.148;17.128;2022-07-18T03:44:10;7.13;;;3.70;;
24739;SDS011;45234;48.148;17.128;2022-07-18T03:46:37;5.05;;;3.15;;
24739;SDS011;45234;48.148;17.128;2022-07-18T03:49:05;5.05;;;3.80;;
24739;SDS011;45234;48.148;17.128;2022-07-18T03:51:32;7.80;;;4.07;;
24739;SDS011;45234;48.148;17.128;2022-07-18T03:53:59;7.38;;;3.45;;
24739;SDS011;45234;48.148;17.128;2022-07-18T03:56:26;5.43;;;3.42;;
24739;SDS011;45234;48.148;17.128;2022-07-18T03:58:53;4.40;;;3.33;;
24739;SDS011;45234;48.148;17.128;2022-07-18T04:01:20;6.07;;;3.72;;
24739;SDS011;45234;48.148;17.128;2022-07-18T04:03:47;5.40;;;3.17;;
24739;SDS011;45234;48.148;17.128;2022-07-18T04:06:15;5.68;;;2.95;;
24739;SDS011;45234;48.148;17.128;2022-07-18T04:08:41;5.00;;;3.00;;
24739;SDS011;45234;48.148;17.128;2022-07-18T04:11:10;3.50;;;2.80;;
24739;SDS011;45234;48.148;17.128;2022-07-18T04:16:10;7.28;;;2.90;;
24739;SDS011;45234;48.148;17.128;2022-07-18T04:18:37;5.85;;;1.85;;
24739;SDS011;45234;48.148;17.128;2022-07-18T04:21:04;28.52;;;3.80;;
24739;SDS011;45234;48.148;17.128;2022-07-18T04:23:32;17.02;;;2.45;;
24739;SDS011;45234;48.148;17.128;2022-07-18T04:26:01;5.25;;;1.50;;
24739;SDS011;45234;48.148;17.128;2022-07-18T04:28:30;4.57;;;1.58;;
24739;SDS011;45234;48.148;17.128;2022-07-18T04:30:57;41.90;;;5.47;;
24739;SDS011;45234;48.148;17.128;2022-07-18T04:33:24;29.50;;;4.70;;
24739;SDS011;45234;48.148;17.128;2022-07-18T04:35:52;30.02;;;3.17;;
24739;SDS011;45234;48.148;17.128;2022-07-18T04:38:18;22.25;;;3.40;;
24739;SDS011;45234;48.148;17.128;2022-07-18T04:40:45;26.02;;;3.78;;
24739;SDS011;45234;48.148;17.128;2022-07-18T04:43:13;32.50;;;4.55;;
24739;SDS011;45234;48.148;17.128;2022-07-18T04:45:40;30.08;;;4.88;;
24739;SDS011;45234;48.148;17.128;2022-07-18T04:48:07;26.10;;;4.07;;
24739;SDS011;45234;48.148;17.128;2022-07-18T04:50:34;36.85;;;4.10;;
24739;SDS011;45234;48.148;17.128;2022-07-18T04:53:01;35.35;;;4.82;;
24739;SDS011;45234;48.148;17.128;2022-07-18T04:55:28;39.03;;;5.55;;
24739;SDS011;45234;48.148;17.128;2022-07-18T04:57:55;29.95;;;3.72;;
24739;SDS011;45234;48.148;17.128;2022-07-18T05:00:24;20.88;;;3.30;;
24739;SDS011;45234;48.148;17.128;2022-07-18T05:02:53;14.43;;;3.20;;
24739;SDS011;45234;48.148;17.128;2022-07-18T05:05:23;11.02;;;2.83;;
24739;SDS011;45234;48.148;17.128;2022-07-18T05:07:58;9.27;;;2.72;;
24739;SDS011;45234;48.148;17.128;2022-07-18T05:10:25;13.95;;;2.70;;
24739;SDS011;45234;48.148;17.128;2022-07-18T05:12:53;17.38;;;2.92;;
24739;SDS011;45234;48.148;17.128;2022-07-18T05:15:21;23.92;;;4.30;;
24739;SDS011;45234;48.148;17.128;2022-07-18T05:17:50;13.90;;;3.00;;
24739;SDS011;45234;48.148;17.128;2022-07-18T05:20:19;6.00;;;1.90;;
24739;SDS011;45234;48.148;17.128;2022-07-18T05:22:47;10.35;;;2.70;;
24739;SDS011;45234;48.148;17.128;2022-07-18T05:25:14;8.25;;;1.77;;
24739;SDS011;45234;48.148;17.128;2022-07-18T05:27:41;8.75;;;2.30;;
24739;SDS011;45234;48.148;17.128;2022-07-18T05:30:09;9.20;;;2.80;;
24739;SDS011;45234;48.148;17.128;2022-07-18T05:32:42;10.23;;;2.92;;
24739;SDS011;45234;48.148;17.128;2022-07-18T05:35:10;19.83;;;5.43;;
24739;SDS011;45234;48.148;17.128;2022-07-18T05:37:38;19.05;;;3.92;;
24739;SDS011;45234;48.148;17.128;2022-07-18T05:40:07;17.48;;;3.97;;
24739;SDS011;45234;48.148;17.128;2022-07-18T05:42:35;13.60;;;3.17;;
24739;SDS011;45234;48.148;17.128;2022-07-18T05:45:19;8.20;;;2.33;;
24739;SDS011;45234;48.148;17.128;2022-07-18T05:47:49;16.70;;;2.80;;
24739;SDS011;45234;48.148;17.128;2022-07-18T05:50:16;8.77;;;2.42;;
24739;SDS011;45234;48.148;17.128;2022-07-18T05:52:44;15.45;;;2.85;;
24739;SDS011;45234;48.148;17.128;2022-07-18T05:55:11;11.90;;;2.83;;
24739;SDS011;45234;48.148;17.128;2022-07-18T05:57:38;4.80;;;2.42;;
24739;SDS011;45234;48.148;17.128;2022-07-18T06:00:06;10.35;;;2.30;;
24739;SDS011;45234;48.148;17.128;2022-07-18T06:02:37;7.65;;;2.28;;
24739;SDS011;45234;48.148;17.128;2022-07-18T06:05:05;3.75;;;2.28;;
24739;SDS011;45234;48.148;17.128;2022-07-18T06:07:52;3.47;;;2.03;;
24739;SDS011;45234;48.148;17.128;2022-07-18T06:10:20;5.43;;;2.10;;
24739;SDS011;45234;48.148;17.128;2022-07-18T06:12:49;6.90;;;2.22;;
24739;SDS011;45234;48.148;17.128;2022-07-18T06:15:17;9.63;;;2.40;;
24739;SDS011;45234;48.148;17.128;2022-07-18T06:17:44;3.47;;;1.52;;
24739;SDS011;45234;48.148;17.128;2022-07-18T06:20:11;5.80;;;2.38;;
24739;SDS011;45234;48.148;17.128;2022-07-18T06:22:39;4.43;;;1.90;;
24739;SDS011;45234;48.148;17.128;2022-07-18T06:25:06;4.50;;;1.95;;
24739;SDS011;45234;48.148;17.128;2022-07-18T06:27:35;3.92;;;1.90;;
24739;SDS011;45234;48.148;17.128;2022-07-18T06:30:03;3.72;;;1.55;;
24739;SDS011;45234;48.148;17.128;2022-07-18T06:32:31;2.95;;;1.52;;
24739;SDS011;45234;48.148;17.128;2022-07-18T06:34:58;10.00;;;1.67;;
24739;SDS011;45234;48.148;17.128;2022-07-18T06:37:25;10.02;;;2.13;;
24739;SDS011;45234;48.148;17.128;2022-07-18T06:39:52;3.60;;;1.55;;
24739;SDS011;45234;48.148;17.128;2022-07-18T06:42:19;6.25;;;1.90;;
24739;SDS011;45234;48.148;17.128;2022-07-18T06:44:49;3.17;;;2.08;;
24739;SDS011;45234;48.148;17.128;2022-07-18T06:47:17;4.72;;;1.90;;
24739;SDS011;45234;48.148;17.128;2022-07-18T06:49:44;5.07;;;2.38;;
24739;SDS011;45234;48.148;17.128;2022-07-18T06:52:12;7.47;;;2.10;;
24739;SDS011;45234;48.148;17.128;2022-07-18T06:54:41;5.75;;;2.53;;
24739;SDS011;45234;48.148;17.128;2022-07-18T06:57:08;4.88;;;2.20;;
24739;SDS011;45234;48.148;17.128;2022-07-18T06:59:36;4.50;;;2.47;;
24739;SDS011;45234;48.148;17.128;2022-07-18T07:02:03;5.60;;;2.00;;
24739;SDS011;45234;48.148;17.128;2022-07-18T07:04:31;3.65;;;2.20;;
24739;SDS011;45234;48.148;17.128;2022-07-18T07:06:59;4.95;;;2.00;;
24739;SDS011;45234;48.148;17.128;2022-07-18T07:09:26;2.85;;;2.00;;
24739;SDS011;45234;48.148;17.128;2022-07-18T07:11:53;5.88;;;2.63;;
24739;SDS011;45234;48.148;17.128;2022-07-18T07:14:20;2.15;;;1.95;;
24739;SDS011;45234;48.148;17.128;2022-07-18T07:16:47;5.38;;;2.03;;
24739;SDS011;45234;48.148;17.128;2022-07-18T07:19:14;6.10;;;2.55;;
24739;SDS011;45234;48.148;17.128;2022-07-18T07:21:41;2.47;;;2.20;;
24739;SDS011;45234;48.148;17.128;2022-07-18T07:24:08;4.40;;;2.10;;
24739;SDS011;45234;48.148;17.128;2022-07-18T07:26:35;2.75;;;2.40;;
24739;SDS011;45234;48.148;17.128;2022-07-18T07:29:03;3.10;;;2.30;;
24739;SDS011;45234;48.148;17.128;2022-07-18T07:31:30;3.20;;;2.53;;
24739;SDS011;45234;48.148;17.128;2022-07-18T07:33:57;6.45;;;2.08;;
24739;SDS011;45234;48.148;17.128;2022-07-18T07:36:31;3.25;;;2.13;;
24739;SDS011;45234;48.148;17.128;2022-07-18T07:38:58;3.10;;;1.73;;
24739;SDS011;45234;48.148;17.128;2022-07-18T07:41:25;2.95;;;2.10;;
24739;SDS011;45234;48.148;17.128;2022-07-18T07:43:53;3.13;;;2.00;;
24739;SDS011;45234;48.148;17.128;2022-07-18T07:46:20;3.15;;;2.13;;
24739;SDS011;45234;48.148;17.128;2022-07-18T07:48:47;3.42;;;2.88;;
24739;SDS011;45234;48.148;17.128;2022-07-18T07:51:14;2.80;;;2.25;;
24739;SDS011;45234;48.148;17.128;2022-07-18T07:53:48;3.55;;;2.10;;
24739;SDS011;45234;48.148;17.128;2022-07-18T07:56:15;4.05;;;2.55;;
24739;SDS011;45234;48.148;17.128;2022-07-18T07:58:45;4.13;;;1.92;;
24739;SDS011;45234;48.148;17.128;2022-07-18T08:01:12;5.70;;;1.95;;
24739;SDS011;45234;48.148;17.128;2022-07-18T08:03:43;4.45;;;1.83;;
24739;SDS011;45234;48.148;17.128;2022-07-18T08:06:12;5.10;;;2.00;;
24739;SDS011;45234;48.148;17.128;2022-07-18T08:08:39;3.25;;;1.83;;
24739;SDS011;45234;48.148;17.128;2022-07-18T08:11:06;4.57;;;2.10;;
24739;SDS011;45234;48.148;17.128;2022-07-18T08:13:33;3.63;;;1.60;;
24739;SDS011;45234;48.148;17.128;2022-07-18T08:16:01;6.30;;;1.67;;
24739;SDS011;45234;48.148;17.128;2022-07-18T08:18:28;5.70;;;2.78;;
24739;SDS011;45234;48.148;17.128;2022-07-18T08:20:55;3.10;;;1.75;;
24739;SDS011;45234;48.148;17.128;2022-07-18T08:23:22;4.18;;;2.10;;
24739;SDS011;45234;48.148;17.128;2022-07-18T08:25:49;4.68;;;1.70;;
24739;SDS011;45234;48.148;17.128;2022-07-18T08:28:17;3.22;;;1.98;;
24739;SDS011;45234;48.148;17.128;2022-07-18T08:30:44;2.95;;;1.77;;
24739;SDS011;45234;48.148;17.128;2022-07-18T08:33:11;3.42;;;1.90;;
24739;SDS011;45234;48.148;17.128;2022-07-18T08:35:38;6.22;;;1.98;;
24739;SDS011;45234;48.148;17.128;2022-07-18T08:38:05;5.68;;;1.70;;
24739;SDS011;45234;48.148;17.128;2022-07-18T08:40:33;3.47;;;1.65;;
24739;SDS011;45234;48.148;17.128;2022-07-18T08:43:01;8.45;;;2.08;;
24739;SDS011;45234;48.148;17.128;2022-07-18T08:45:48;7.70;;;1.98;;
24739;SDS011;45234;48.148;17.128;2022-07-18T08:48:18;4.90;;;1.65;;
24739;SDS011;45234;48.148;17.128;2022-07-18T08:50:46;3.88;;;2.03;;
24739;SDS011;45234;48.148;17.128;2022-07-18T08:53:15;4.15;;;2.03;;
24739;SDS011;45234;48.148;17.128;2022-07-18T08:55:43;3.13;;;1.80;;
24739;SDS011;45234;48.148;17.128;2022-07-18T08:58:11;4.47;;;1.90;;
24739;SDS011;45234;48.148;17.128;2022-07-18T09:01:00;4.70;;;1.60;;
24739;SDS011;45234;48.148;17.128;2022-07-18T09:03:27;6.05;;;2.17;;
24739;SDS011;45234;48.148;17.128;2022-07-18T09:06:06;5.55;;;2.00;;
24739;SDS011;45234;48.148;17.128;2022-07-18T09:08:37;3.10;;;2.33;;
24739;SDS011;45234;48.148;17.128;2022-07-18T09:11:10;5.90;;;1.80;;
24739;SDS011;45234;48.148;17.128;2022-07-18T09:13:58;4.30;;;2.10;;
24739;SDS011;45234;48.148;17.128;2022-07-18T09:16:25;4.57;;;1.75;;
24739;SDS011;45234;48.148;17.128;2022-07-18T09:18:53;4.32;;;1.77;;
24739;SDS011;45234;48.148;17.128;2022-07-18T09:21:21;4.05;;;1.70;;
24739;SDS011;45234;48.148;17.128;2022-07-18T09:23:50;2.13;;;1.50;;
24739;SDS011;45234;48.148;17.128;2022-07-18T09:29:13;2.65;;;1.50;;
24739;SDS011;45234;48.148;17.128;2022-07-18T09:31:52;6.25;;;1.70;;
24739;SDS011;45234;48.148;17.128;2022-07-18T09:34:37;5.20;;;2.25;;
24739;SDS011;45234;48.148;17.128;2022-07-18T09:37:11;5.63;;;1.85;;
24739;SDS011;45234;48.148;17.128;2022-07-18T09:39:38;3.88;;;1.50;;
24739;SDS011;45234;48.148;17.128;2022-07-18T09:42:12;2.50;;;1.40;;
24739;SDS011;45234;48.148;17.128;2022-07-18T09:44:40;4.63;;;1.58;;
24739;SDS011;45234;48.148;17.128;2022-07-18T09:47:08;5.22;;;1.58;;
24739;SDS011;45234;48.148;17.128;2022-07-18T09:49:36;3.03;;;1.25;;
24739;SDS011;45234;48.148;17.128;2022-07-18T09:52:07;5.82;;;1.40;;
24739;SDS011;45234;48.148;17.128;2022-07-18T09:54:37;2.92;;;1.30;;
24739;SDS011;45234;48.148;17.128;2022-07-18T09:57:05;6.70;;;2.10;;
24739;SDS011;45234;48.148;17.128;2022-07-18T09:59:32;4.22;;;1.73;;
24739;SDS011;45234;48.148;17.128;2022-07-18T10:02:02;3.85;;;1.40;;
24739;SDS011;45234;48.148;17.128;2022-07-18T10:04:30;6.90;;;1.70;;
24739;SDS011;45234;48.148;17.128;2022-07-18T10:06:57;4.38;;;1.40;;
24739;SDS011;45234;48.148;17.128;2022-07-18T10:09:25;10.85;;;2.60;;
24739;SDS011;45234;48.148;17.128;2022-07-18T10:11:54;6.00;;;2.40;;
24739;SDS011;45234;48.148;17.128;2022-07-18T10:14:28;14.20;;;1.75;;
24739;SDS011;45234;48.148;17.128;2022-07-18T10:16:56;4.05;;;1.88;;
24739;SDS011;45234;48.148;17.128;2022-07-18T10:19:24;10.73;;;1.38;;
24739;SDS011;45234;48.148;17.128;2022-07-18T10:21:53;3.95;;;1.63;;
24739;SDS011;45234;48.148;17.128;2022-07-18T10:24:23;2.92;;;1.70;;
24739;SDS011;45234;48.148;17.128;2022-07-18T10:27:13;5.47;;;1.90;;
24739;SDS011;45234;48.148;17.128;2022-07-18T10:30:17;5.80;;;1.50;;
24739;SDS011;45234;48.148;17.128;2022-07-18T10:32:37;3.42;;;1.50;;
24739;SDS011;45234;48.148;17.128;2022-07-18T10:35:05;3.47;;;1.40;;
24739;SDS011;45234;48.148;17.128;2022-07-18T10:37:34;3.25;;;1.35;;
24739;SDS011;45234;48.148;17.128;2022-07-18T10:40:20;5.40;;;1.15;;
24739;SDS011;45234;48.148;17.128;2022-07-18T10:45:56;6.00;;;1.40;;
24739;SDS011;45234;48.148;17.128;2022-07-18T10:51:07;3.15;;;1.52;;
24739;SDS011;45234;48.148;17.128;2022-07-18T10:59:16;5.57;;;1.80;;
24739;SDS011;45234;48.148;17.128;2022-07-18T11:01:50;5.22;;;1.70;;
24739;SDS011;45234;48.148;17.128;2022-07-18T11:04:23;4.07;;;1.20;;
24739;SDS011;45234;48.148;17.128;2022-07-18T11:09:44;4.95;;;1.10;;
24739;SDS011;45234;48.148;17.128;2022-07-18T11:23:17;3.92;;;0.95;;
24739;SDS011;45234;48.148;17.128;2022-07-18T11:25:47;5.43;;;1.10;;
24739;SDS011;45234;48.148;17.128;2022-07-18T11:28:25;5.72;;;0.95;;
24739;SDS011;45234;48.148;17.128;2022-07-18T11:31:28;3.90;;;1.00;;
24739;SDS011;45234;48.148;17.128;2022-07-18T11:33:48;3.70;;;1.15;;
24739;SDS011;45234;48.148;17.128;2022-07-18T11:36:17;1.08;;;0.60;;
24739;SDS011;45234;48.148;17.128;2022-07-18T11:38:46;2.00;;;1.00;;
24739;SDS011;45234;48.148;17.128;2022-07-18T11:41:19;1.80;;;0.93;;
24739;SDS011;45234;48.148;17.128;2022-07-18T11:43:47;1.45;;;0.82;;
24739;SDS011;45234;48.148;17.128;2022-07-18T11:46:16;2.17;;;0.70;;
24739;SDS011;45234;48.148;17.128;2022-07-18T11:48:46;2.80;;;0.88;;
24739;SDS011;45234;48.148;17.128;2022-07-18T11:51:15;2.78;;;0.88;;
24739;SDS011;45234;48.148;17.128;2022-07-18T11:53:44;5.70;;;1.00;;
24739;SDS011;45234;48.148;17.128;2022-07-18T11:56:13;1.00;;;0.80;;
24739;SDS011;45234;48.148;17.128;2022-07-18T11:58:42;2.90;;;0.88;;
24739;SDS011;45234;48.148;17.128;2022-07-18T12:01:10;2.70;;;0.98;;
24739;SDS011;45234;48.148;17.128;2022-07-18T12:03:40;2.33;;;0.75;;
24739;SDS011;45234;48.148;17.128;2022-07-18T12:06:13;3.03;;;0.90;;
24739;SDS011;45234;48.148;17.128;2022-07-18T12:08:42;2.40;;;0.70;;
24739;SDS011;45234;48.148;17.128;2022-07-18T12:16:47;1.45;;;0.80;;
24739;SDS011;45234;48.148;17.128;2022-07-18T12:19:31;1.58;;;0.80;;
24739;SDS011;45234;48.148;17.128;2022-07-18T12:30:05;3.78;;;1.08;;
24739;SDS011;45234;48.148;17.128;2022-07-18T12:37:54;2.55;;;1.30;;
24739;SDS011;45234;48.148;17.128;2022-07-18T12:43:09;1.40;;;0.68;;
24739;SDS011;45234;48.148;17.128;2022-07-18T12:45:52;1.70;;;0.80;;
24739;SDS011;45234;48.148;17.128;2022-07-18T12:48:21;2.88;;;0.70;;
24739;SDS011;45234;48.148;17.128;2022-07-18T12:53:27;2.78;;;1.23;;
24739;SDS011;45234;48.148;17.128;2022-07-18T12:55:54;1.20;;;0.80;;
24739;SDS011;45234;48.148;17.128;2022-07-18T12:58:22;1.90;;;0.75;;
24739;SDS011;45234;48.148;17.128;2022-07-18T13:00:49;1.50;;;0.93;;
24739;SDS011;45234;48.148;17.128;2022-07-18T13:03:16;1.55;;;0.65;;
24739;SDS011;45234;48.148;17.128;2022-07-18T13:05:43;3.65;;;0.80;;
24739;SDS011;45234;48.148;17.128;2022-07-18T13:08:11;2.33;;;0.90;;
24739;SDS011;45234;48.148;17.128;2022-07-18T13:10:38;0.80;;;0.60;;
24739;SDS011;45234;48.148;17.128;2022-07-18T13:13:06;0.82;;;0.50;;
24739;SDS011;45234;48.148;17.128;2022-07-18T13:15:35;1.77;;;0.60;;
24739;SDS011;45234;48.148;17.128;2022-07-18T13:18:03;1.95;;;0.80;;
24739;SDS011;45234;48.148;17.128;2022-07-18T13:20:31;1.90;;;1.00;;
24739;SDS011;45234;48.148;17.128;2022-07-18T13:22:58;3.38;;;0.80;;
24739;SDS011;45234;48.148;17.128;2022-07-18T13:25:30;0.65;;;0.52;;
24739;SDS011;45234;48.148;17.128;2022-07-18T13:27:59;2.03;;;0.80;;
24739;SDS011;45234;48.148;17.128;2022-07-18T13:30:26;1.95;;;0.98;;
24739;SDS011;45234;48.148;17.128;2022-07-18T13:32:53;4.07;;;0.73;;
24739;SDS011;45234;48.148;17.128;2022-07-18T13:35:21;3.38;;;1.45;;
24739;SDS011;45234;48.148;17.128;2022-07-18T13:37:48;2.55;;;0.68;;
24739;SDS011;45234;48.148;17.128;2022-07-18T13:40:15;2.05;;;0.70;;
24739;SDS011;45234;48.148;17.128;2022-07-18T13:42:42;0.55;;;0.45;;
24739;SDS011;45234;48.148;17.128;2022-07-18T13:45:09;2.47;;;0.77;;
24739;SDS011;45234;48.148;17.128;2022-07-18T13:47:39;2.28;;;1.00;;
24739;SDS011;45234;48.148;17.128;2022-07-18T13:50:08;2.70;;;0.90;;
24739;SDS011;45234;48.148;17.128;2022-07-18T13:52:36;3.33;;;1.10;;
24739;SDS011;45234;48.148;17.128;2022-07-18T13:55:03;1.83;;;1.00;;
24739;SDS011;45234;48.148;17.128;2022-07-18T13:57:32;2.17;;;0.82;;
24739;SDS011;45234;48.148;17.128;2022-07-18T14:00:00;2.58;;;0.70;;
24739;SDS011;45234;48.148;17.128;2022-07-18T14:02:32;1.60;;;0.70;;
24739;SDS011;45234;48.148;17.128;2022-07-18T14:05:04;0.88;;;0.57;;
24739;SDS011;45234;48.148;17.128;2022-07-18T14:07:41;1.10;;;0.90;;
24739;SDS011;45234;48.148;17.128;2022-07-18T14:10:09;7.22;;;1.08;;
24739;SDS011;45234;48.148;17.128;2022-07-18T14:12:37;2.83;;;0.70;;
24739;SDS011;45234;48.148;17.128;2022-07-18T14:15:05;2.00;;;0.90;;
24739;SDS011;45234;48.148;17.128;2022-07-18T14:17:33;3.05;;;1.08;;
24739;SDS011;45234;48.148;17.128;2022-07-18T14:20:00;2.92;;;1.00;;
24739;SDS011;45234;48.148;17.128;2022-07-18T14:22:28;6.13;;;1.02;;
24739;SDS011;45234;48.148;17.128;2022-07-18T14:24:57;3.22;;;0.80;;
24739;SDS011;45234;48.148;17.128;2022-07-18T14:27:24;2.60;;;1.00;;
24739;SDS011;45234;48.148;17.128;2022-07-18T14:29:51;1.35;;;0.80;;
24739;SDS011;45234;48.148;17.128;2022-07-18T14:32:19;2.88;;;1.02;;
24739;SDS011;45234;48.148;17.128;2022-07-18T14:34:46;2.75;;;0.82;;
24739;SDS011;45234;48.148;17.128;2022-07-18T14:37:13;2.55;;;1.00;;
24739;SDS011;45234;48.148;17.128;2022-07-18T14:39:40;1.88;;;0.80;;
24739;SDS011;45234;48.148;17.128;2022-07-18T14:42:08;3.95;;;1.10;;
24739;SDS011;45234;48.148;17.128;2022-07-18T14:44:35;1.38;;;0.70;;
24739;SDS011;45234;48.148;17.128;2022-07-18T14:47:02;1.50;;;1.10;;
24739;SDS011;45234;48.148;17.128;2022-07-18T14:49:29;2.30;;;1.02;;
24739;SDS011;45234;48.148;17.128;2022-07-18T14:51:57;1.77;;;0.98;;
24739;SDS011;45234;48.148;17.128;2022-07-18T14:54:27;2.83;;;1.25;;
24739;SDS011;45234;48.148;17.128;2022-07-18T14:56:54;2.72;;;0.82;;
24739;SDS011;45234;48.148;17.128;2022-07-18T14:59:22;4.65;;;0.93;;
24739;SDS011;45234;48.148;17.128;2022-07-18T15:01:53;1.67;;;0.60;;
24739;SDS011;45234;48.148;17.128;2022-07-18T15:04:21;1.33;;;0.80;;
24739;SDS011;45234;48.148;17.128;2022-07-18T15:06:48;1.40;;;0.70;;
24739;SDS011;45234;48.148;17.128;2022-07-18T15:09:15;1.35;;;1.20;;
24739;SDS011;45234;48.148;17.128;2022-07-18T15:11:43;1.38;;;0.73;;
24739;SDS011;45234;48.148;17.128;2022-07-18T15:14:11;1.77;;;0.90;;
24739;SDS011;45234;48.148;17.128;2022-07-18T15:16:42;3.35;;;0.90;;
24739;SDS011;45234;48.148;17.128;2022-07-18T15:19:09;4.95;;;0.68;;
24739;SDS011;45234;48.148;17.128;2022-07-18T15:21:38;1.73;;;0.90;;
24739;SDS011;45234;48.148;17.128;2022-07-18T15:24:25;2.08;;;0.75;;
24739;SDS011;45234;48.148;17.128;2022-07-18T15:26:52;3.47;;;0.70;;
24739;SDS011;45234;48.148;17.128;2022-07-18T15:29:19;2.63;;;0.60;;
24739;SDS011;45234;48.148;17.128;2022-07-18T15:31:47;1.38;;;0.75;;
24739;SDS011;45234;48.148;17.128;2022-07-18T15:34:21;1.63;;;0.90;;
24739;SDS011;45234;48.148;17.128;2022-07-18T15:36:49;2.22;;;0.70;;
24739;SDS011;45234;48.148;17.128;2022-07-18T15:39:16;2.35;;;1.08;;